Time;durP1;ratioP1;P1;durP2;ratioP2;P2;SDS_P1;SDS_P2;PMS_P1;PMS_P2;Temp;Humidity;BMP_temperature;BMP_pressure;BME280_temperature;BME280_humidity;BME280_pressure;Samples;Min_cycle;Max_cycle;Signal;HPM_P1;HPM_P2
2021/06/19 00:00:14;;;;;;;63.65;55.83;;;18.70;99.90;;;;;;5047343;28;20558;-39
2021/06/19 00:02:42;;;;;;;60.78;51.42;;;18.60;99.90;;;;;;5048118;28;20068;-40
2021/06/19 00:05:09;;;;;;;80.95;60.55;;;18.70;99.90;;;;;;5047545;28;20048;-39
2021/06/19 00:07:36;;;;;;;67.95;56.70;;;18.60;99.90;;;;;;5047307;28;20049;-39
2021/06/19 00:10:04;;;;;;;63.63;53.15;;;18.60;99.90;;;;;;5047903;28;20044;-39
2021/06/19 00:12:35;;;;;;;62.60;55.08;;;18.60;99.90;;;;;;5048445;28;20669;-39
2021/06/19 00:15:08;;;;;;;77.18;62.03;;;18.60;99.90;;;;;;5047537;28;20049;-39
2021/06/19 00:17:39;;;;;;;69.03;56.25;;;18.60;99.90;;;;;;5027303;28;20069;-39
2021/06/19 00:20:07;;;;;;;;;;;18.60;99.90;;;;;;5027935;28;20098;-39
2021/06/19 00:22:36;;;;;;;79.78;63.15;;;18.60;99.90;;;;;;5034011;28;19925;-39
2021/06/19 00:25:06;;;;;;;73.40;62.97;;;18.60;99.90;;;;;;5034428;28;20094;-39
2021/06/19 00:27:33;;;;;;;75.97;56.65;;;18.60;99.90;;;;;;5047215;28;20057;-39
2021/06/19 00:30:01;;;;;;;72.75;59.50;;;18.60;99.90;;;;;;5048269;28;20053;-39
2021/06/19 00:32:28;;;;;;;93.45;70.05;;;18.60;99.90;;;;;;5050394;28;20040;-39
2021/06/19 00:34:54;;;;;;;78.90;61.85;;;18.60;99.90;;;;;;5046974;28;20088;-39
2021/06/19 00:37:22;;;;;;;83.25;63.33;;;18.60;99.90;;;;;;5047184;28;20119;-39
2021/06/19 00:39:51;;;;;;;96.25;67.90;;;18.60;99.90;;;;;;5047003;28;20374;-39
2021/06/19 00:42:22;;;;;;;103.85;71.40;;;18.50;99.90;;;;;;5046920;28;20060;-39
2021/06/19 00:44:49;;;;;;;87.72;65.45;;;18.50;99.90;;;;;;5051662;28;20041;-39
2021/06/19 00:47:15;;;;;;;99.80;69.65;;;18.60;99.90;;;;;;5046988;28;20044;-40
2021/06/19 00:49:42;;;;;;;88.28;68.57;;;18.60;99.90;;;;;;5051462;28;20044;-39
2021/06/19 00:52:08;;;;;;;94.80;68.20;;;18.60;99.90;;;;;;5046530;28;20144;-39
2021/06/19 00:54:35;;;;;;;72.88;58.92;;;18.50;99.90;;;;;;5046279;28;20041;-39
2021/06/19 00:57:04;;;;;;;101.50;67.40;;;18.50;99.90;;;;;;5046710;28;20053;-39
2021/06/19 00:59:30;;;;;;;92.57;62.85;;;18.50;99.90;;;;;;5046112;28;20485;-39
2021/06/19 01:02:00;;;;;;;88.38;63.45;;;18.50;99.90;;;;;;5047496;28;20064;-39
2021/06/19 01:04:27;;;;;;;101.95;69.97;;;18.50;99.90;;;;;;5047167;28;20155;-39
2021/06/19 01:06:53;;;;;;;83.65;65.30;;;18.50;99.90;;;;;;5047252;28;20053;-39
2021/06/19 01:09:19;;;;;;;105.38;69.80;;;18.50;99.90;;;;;;5046537;28;20532;-39
2021/06/19 01:11:51;;;;;;;96.35;71.05;;;18.50;99.90;;;;;;5047207;28;20428;-39
2021/06/19 01:14:18;;;;;;;92.43;70.43;;;18.50;99.90;;;;;;5057461;28;20048;-39
2021/06/19 01:16:49;;;;;;;107.90;76.68;;;18.50;99.90;;;;;;5044465;28;20397;-39
2021/06/19 01:19:21;;;;;;;105.60;73.28;;;18.50;99.90;;;;;;5046855;28;20060;-39
2021/06/19 01:21:52;;;;;;;110.03;80.93;;;18.50;99.90;;;;;;5046056;28;20044;-39
2021/06/19 01:24:22;;;;;;;120.18;83.97;;;18.60;99.90;;;;;;5037925;28;20340;-39
2021/06/19 01:26:51;;;;;;;116.45;76.65;;;18.60;99.90;;;;;;5038821;28;20045;-39
2021/06/19 01:29:18;;;;;;;123.57;83.97;;;18.60;99.90;;;;;;5046909;28;20041;-39
2021/06/19 01:31:44;;;;;;;115.45;80.97;;;18.60;99.90;;;;;;5045978;28;20052;-39
2021/06/19 01:34:14;;;;;;;117.93;82.18;;;18.50;99.90;;;;;;5045672;28;20737;-39
2021/06/19 01:36:42;;;;;;;133.43;86.30;;;18.50;99.90;;;;;;5046060;28;20045;-39
2021/06/19 01:39:09;;;;;;;123.07;82.93;;;18.60;99.90;;;;;;5044429;28;20049;-39
2021/06/19 01:41:36;;;;;;;108.40;80.78;;;18.60;99.90;;;;;;5053313;28;20045;-39
2021/06/19 01:44:09;;;;;;;116.88;83.60;;;18.60;99.90;;;;;;5049554;28;20131;-39
2021/06/19 01:46:39;;;;;;;111.90;83.65;;;18.50;99.90;;;;;;5049713;28;20040;-39
2021/06/19 01:49:07;;;;;;;136.48;89.15;;;18.50;99.90;;;;;;5049924;28;20412;-39
2021/06/19 01:51:36;;;;;;;125.28;84.15;;;18.60;99.90;;;;;;5049283;28;20091;-39
2021/06/19 01:54:03;;;;;;;125.90;87.63;;;18.60;99.90;;;;;;5050388;28;20800;-40
2021/06/19 01:56:29;;;;;;;129.82;86.85;;;18.60;99.90;;;;;;5050132;28;20059;-39
2021/06/19 01:58:58;;;;;;;121.90;86.20;;;18.50;99.90;;;;;;5050367;28;20060;-39
2021/06/19 02:01:24;;;;;;;141.05;89.88;;;18.60;99.90;;;;;;5049549;28;20056;-39
2021/06/19 02:03:51;;;;;;;119.55;84.78;;;18.50;99.90;;;;;;5049885;28;20052;-39
2021/06/19 02:06:22;;;;;;;122.40;87.93;;;18.60;99.90;;;;;;5050778;28;20090;-39
2021/06/19 02:09:06;;;;;;;121.78;87.60;;;18.60;99.90;;;;;;5050704;28;20049;-39
2021/06/19 02:11:33;;;;;;;111.28;80.85;;;18.60;99.90;;;;;;5050215;28;20045;-39
2021/06/19 02:14:00;;;;;;;120.82;91.80;;;18.60;99.90;;;;;;5049759;28;20115;-39
2021/06/19 02:16:31;;;;;;;116.78;85.97;;;18.60;99.90;;;;;;5049509;28;20048;-39
2021/06/19 02:19:02;;;;;;;106.25;86.55;;;18.60;99.90;;;;;;5050164;28;20060;-39
2021/06/19 02:21:29;;;;;;;95.13;82.75;;;18.60;99.90;;;;;;5050716;28;20689;-39
2021/06/19 02:23:58;;;;;;;113.18;89.68;;;18.60;99.90;;;;;;5048316;28;20076;-39
2021/06/19 02:26:27;;;;;;;112.57;87.95;;;18.60;99.90;;;;;;5049736;28;20049;-39
2021/06/19 02:28:53;;;;;;;124.38;90.10;;;18.70;99.90;;;;;;5049421;28;20051;-39
2021/06/19 02:31:25;;;;;;;97.45;81.15;;;18.70;99.90;;;;;;5049911;28;20049;-39
2021/06/19 02:33:54;;;;;;;92.05;80.30;;;18.60;99.90;;;;;;5049459;28;20160;-38
2021/06/19 02:36:20;;;;;;;108.45;84.88;;;18.70;99.90;;;;;;5049461;28;20182;-39
2021/06/19 02:38:48;;;;;;;83.90;72.55;;;18.70;99.90;;;;;;5049534;28;20052;-38
2021/06/19 02:41:17;;;;;;;76.95;68.78;;;18.70;99.90;;;;;;5044016;28;20046;-38
2021/06/19 02:43:46;;;;;;;79.25;71.05;;;18.70;99.90;;;;;;5032508;28;20068;-39
2021/06/19 02:46:12;;;;;;;67.60;60.83;;;18.70;99.90;;;;;;5049172;28;20052;-38
2021/06/19 02:48:38;;;;;;;68.95;61.33;;;18.70;99.90;;;;;;5048878;28;20049;-39
2021/06/19 02:51:04;;;;;;;66.25;59.25;;;18.70;99.90;;;;;;5049164;28;20045;-38
2021/06/19 02:53:36;;;;;;;62.60;56.28;;;18.70;99.90;;;;;;5048037;28;20052;-39
2021/06/19 02:56:02;;;;;;;58.05;51.92;;;18.60;99.90;;;;;;5051598;28;20041;-39
2021/06/19 02:58:29;;;;;;;61.08;54.45;;;18.60;99.90;;;;;;5055765;28;20041;-38
2021/06/19 03:00:59;;;;;;;57.78;51.95;;;18.60;99.90;;;;;;5047667;28;20049;-38
2021/06/19 03:03:25;;;;;;;61.55;55.13;;;18.60;99.90;;;;;;5048771;28;20068;-38
2021/06/19 03:05:52;;;;;;;56.65;50.70;;;18.60;99.90;;;;;;5048659;28;20432;-39
2021/06/19 03:08:21;;;;;;;57.50;51.65;;;18.60;99.90;;;;;;5048395;28;20049;-38
2021/06/19 03:10:47;;;;;;;53.55;48.42;;;18.60;99.90;;;;;;5048193;28;20049;-39
2021/06/19 03:13:13;;;;;;;62.33;54.10;;;18.60;99.90;;;;;;5047586;28;20048;-38
2021/06/19 03:15:42;;;;;;;64.75;55.33;;;18.50;99.90;;;;;;5048469;28;20385;-39
2021/06/19 03:18:10;;;;;;;58.47;52.22;;;18.50;99.90;;;;;;5052197;28;20063;-38
2021/06/19 03:20:39;;;;;;;60.17;53.40;;;18.50;99.90;;;;;;5047590;28;20106;-38
2021/06/19 03:23:08;;;;;;;61.50;54.95;;;18.50;99.90;;;;;;5048614;28;20127;-38
2021/06/19 03:25:42;;;;;;;60.40;53.90;;;18.50;99.90;;;;;;5048390;28;20055;-38
2021/06/19 03:28:12;;;;;;;62.80;56.15;;;18.50;99.90;;;;;;5048162;28;20106;-39
2021/06/19 03:30:41;;;;;;;65.13;58.20;;;18.50;99.90;;;;;;5047633;28;20056;-39
2021/06/19 03:33:08;;;;;;;62.95;55.65;;;18.50;99.90;;;;;;5047669;28;20045;-39
2021/06/19 03:35:37;;;;;;;64.15;56.85;;;18.50;99.90;;;;;;5047986;28;20175;-39
2021/06/19 03:38:06;;;;;;;57.95;51.95;;;18.50;99.90;;;;;;5048580;28;20428;-39
2021/06/19 03:40:37;;;;;;;58.67;51.83;;;18.50;99.90;;;;;;5047664;28;20567;-39
2021/06/19 03:43:04;;;;;;;54.92;49.17;;;18.50;99.90;;;;;;5047936;28;20496;-39
2021/06/19 03:45:36;;;;;;;49.33;44.53;;;18.50;99.90;;;;;;5047964;28;20404;-39
2021/06/19 03:48:07;;;;;;;45.85;41.17;;;18.50;99.90;;;;;;5048147;28;20041;-39
2021/06/19 03:50:39;;;;;;;46.95;42.10;;;18.50;99.90;;;;;;5054890;28;20041;-39
2021/06/19 03:53:06;;;;;;;43.85;39.85;;;18.50;99.90;;;;;;5028503;28;20068;-39
2021/06/19 03:55:35;;;;;;;42.20;38.08;;;18.50;99.90;;;;;;5039722;28;20041;-39
2021/06/19 03:58:07;;;;;;;42.88;38.78;;;18.60;99.90;;;;;;5047842;28;20045;-39
2021/06/19 04:00:33;;;;;;;43.83;39.40;;;18.60;99.90;;;;;;5047361;28;20397;-39
2021/06/19 04:03:04;;;;;;;38.58;35.00;;;18.60;99.90;;;;;;5046137;28;20056;-39
2021/06/19 04:05:30;;;;;;;41.45;37.13;;;18.60;99.90;;;;;;5047335;28;20045;-39
2021/06/19 04:07:57;;;;;;;39.00;35.30;;;18.60;99.90;;;;;;5047704;28;20045;-39
2021/06/19 04:10:25;;;;;;;38.97;35.15;;;18.60;99.90;;;;;;5050937;28;20124;-39
2021/06/19 04:12:52;;;;;;;40.08;36.28;;;18.60;99.90;;;;;;5048503;28;20519;-39
2021/06/19 04:15:18;;;;;;;45.00;40.50;;;18.60;99.90;;;;;;5055345;28;20135;-39
2021/06/19 04:17:47;;;;;;;40.08;36.03;;;18.60;99.90;;;;;;5047287;28;20135;-39
2021/06/19 04:20:15;;;;;;;41.83;37.70;;;18.60;99.90;;;;;;5047844;28;20184;-39
2021/06/19 04:22:43;;;;;;;42.22;37.90;;;18.60;99.90;;;;;;5046519;28;20439;-39
2021/06/19 04:25:11;;;;;;;42.00;38.00;;;18.60;99.90;;;;;;5046820;28;20049;-39
2021/06/19 04:27:45;;;;;;;41.22;37.22;;;18.60;99.90;;;;;;5047313;28;20080;-39
2021/06/19 04:30:17;;;;;;;43.33;39.03;;;18.60;99.90;;;;;;5047630;28;20045;-39
2021/06/19 04:32:44;;;;;;;41.28;36.83;;;18.60;99.90;;;;;;5048360;28;20153;-38
2021/06/19 04:35:13;;;;;;;40.28;36.47;;;18.60;99.90;;;;;;5038220;28;20052;-39
2021/06/19 04:37:42;;;;;;;40.70;36.50;;;18.70;99.90;;;;;;5046677;28;20057;-39
2021/06/19 04:42:43;;;;;;;35.90;32.47;;;18.80;99.90;;;;;;5048154;28;20045;-38
2021/06/19 04:45:11;;;;;;;37.78;34.05;;;18.90;99.90;;;;;;5047466;28;20048;-38
2021/06/19 04:47:39;;;;;;;36.65;32.65;;;18.90;99.90;;;;;;5047339;28;20079;-38
2021/06/19 04:50:09;;;;;;;36.33;32.80;;;18.90;99.90;;;;;;5047669;28;20136;-38
2021/06/19 04:52:40;;;;;;;36.92;33.20;;;19.00;99.90;;;;;;5047087;28;20048;-38
2021/06/19 04:55:10;;;;;;;37.97;34.10;;;19.10;99.90;;;;;;5046540;28;20417;-38
2021/06/19 04:57:39;;;;;;;36.65;32.88;;;19.20;99.90;;;;;;5047223;28;20056;-38
2021/06/19 05:00:06;;;;;;;35.28;31.85;;;19.30;99.90;;;;;;5046330;28;20433;-38
2021/06/19 05:02:33;;;;;;;37.50;33.83;;;19.50;99.90;;;;;;5047052;28;20104;-38
2021/06/19 05:05:02;;;;;;;32.80;29.63;;;19.50;99.90;;;;;;5046428;28;20067;-38
2021/06/19 05:07:28;;;;;;;35.95;32.35;;;19.50;99.90;;;;;;5052815;28;20813;-38
2021/06/19 05:09:57;;;;;;;34.35;30.83;;;19.50;99.90;;;;;;5046594;28;20053;-38
2021/06/19 05:12:25;;;;;;;36.13;32.55;;;19.50;99.90;;;;;;5046325;28;20140;-38
2021/06/19 05:14:54;;;;;;;34.63;31.30;;;19.50;99.90;;;;;;5046187;28;20057;-38
2021/06/19 05:17:21;;;;;;;34.03;30.55;;;19.50;99.90;;;;;;5047655;28;20068;-38
2021/06/19 05:19:50;;;;;;;32.63;29.40;;;19.40;99.90;;;;;;5050848;28;20456;-38
2021/06/19 05:22:16;;;;;;;33.05;29.75;;;19.40;99.90;;;;;;5051242;28;20174;-38
2021/06/19 05:24:44;;;;;;;33.80;30.38;;;19.30;99.90;;;;;;5052421;28;20461;-37
2021/06/19 05:27:11;;;;;;;33.90;30.75;;;19.30;99.90;;;;;;5049504;28;20041;-38
2021/06/19 05:29:37;;;;;;;37.55;33.95;;;19.30;99.90;;;;;;5050446;28;20045;-38
2021/06/19 05:32:04;;;;;;;34.38;31.05;;;19.40;99.90;;;;;;5051171;28;20045;-38
2021/06/19 05:34:33;;;;;;;38.65;34.83;;;19.30;99.90;;;;;;5051124;28;20056;-40
2021/06/19 05:36:59;;;;;;;36.85;33.55;;;19.30;99.90;;;;;;5050146;28;20140;-39
2021/06/19 05:39:27;;;;;;;34.55;31.38;;;19.30;99.90;;;;;;5070748;28;20041;-37
2021/06/19 05:41:56;;;;;;;36.65;33.22;;;19.40;99.90;;;;;;5071263;28;20491;-36
2021/06/19 05:44:23;;;;;;;37.22;33.78;;;19.40;99.90;;;;;;5058219;28;20130;-36
2021/06/19 05:46:50;;;;;;;39.85;35.85;;;19.40;99.90;;;;;;5044408;28;20052;-36
2021/06/19 05:49:18;;;;;;;37.65;33.88;;;19.40;99.90;;;;;;5050310;28;20374;-36
2021/06/19 05:51:49;;;;;;;38.47;34.43;;;19.50;99.90;;;;;;5048610;28;20274;-37
2021/06/19 05:54:18;;;;;;;39.90;33.83;;;19.50;99.90;;;;;;5047724;28;20299;-36
2021/06/19 05:56:46;;;;;;;34.30;30.95;;;19.60;99.90;;;;;;5048842;28;20045;-37
2021/06/19 05:59:15;;;;;;;36.05;32.63;;;19.70;99.90;;;;;;5047780;28;20044;-36
2021/06/19 06:01:44;;;;;;;37.20;33.67;;;19.80;99.90;;;;;;5053378;28;20048;-36
2021/06/19 06:04:10;;;;;;;39.80;35.80;;;19.90;99.90;;;;;;5070121;28;20060;-37
2021/06/19 06:06:39;;;;;;;38.63;34.90;;;19.90;99.90;;;;;;5047487;28;20136;-37
2021/06/19 06:09:10;;;;;;;38.22;34.25;;;19.90;99.90;;;;;;5056016;28;20048;-37
2021/06/19 06:11:42;;;;;;;38.13;34.13;;;19.90;99.90;;;;;;5035167;28;20132;-37
2021/06/19 06:14:13;;;;;;;37.40;33.83;;;19.80;99.90;;;;;;5049547;28;20515;-37
2021/06/19 06:16:40;;;;;;;38.13;34.35;;;19.70;99.90;;;;;;5052147;28;20802;-37
2021/06/19 06:19:11;;;;;;;37.10;33.25;;;19.70;99.90;;;;;;5046251;28;20049;-38
2021/06/19 06:21:48;;;;;;;36.15;32.42;;;19.60;99.90;;;;;;5056553;28;20047;-38
2021/06/19 06:24:24;;;;;;;33.50;30.02;;;19.60;99.90;;;;;;5034952;28;20045;-38
2021/06/19 06:26:52;;;;;;;33.35;29.92;;;19.40;99.90;;;;;;5037406;28;20072;-36
2021/06/19 06:29:21;;;;;;;31.80;28.45;;;19.40;99.90;;;;;;5051039;28;20154;-36
2021/06/19 06:31:51;;;;;;;31.63;28.33;;;19.40;99.90;;;;;;5049180;28;20140;-36
2021/06/19 06:34:20;;;;;;;43.58;38.80;;;19.30;99.90;;;;;;5049037;28;20044;-36
2021/06/19 06:36:53;;;;;;;34.88;29.42;;;19.50;99.90;;;;;;5056519;28;20084;-37
2021/06/19 06:39:20;;;;;;;33.33;29.77;;;19.60;99.90;;;;;;5028634;28;20152;-36
2021/06/19 06:41:46;;;;;;;35.20;31.35;;;19.70;99.90;;;;;;5036004;28;20045;-36
2021/06/19 06:44:15;;;;;;;30.73;27.60;;;19.70;99.90;;;;;;5049195;28;20045;-36
2021/06/19 06:46:44;;;;;;;31.98;27.88;;;19.60;99.90;;;;;;5048014;28;20036;-37
2021/06/19 06:49:13;;;;;;;30.05;26.90;;;19.70;99.90;;;;;;5048710;28;20045;-36
2021/06/19 06:51:47;;;;;;;30.83;27.70;;;19.90;99.90;;;;;;5048424;28;20048;-37
2021/06/19 06:54:16;;;;;;;36.40;31.50;;;19.90;99.90;;;;;;5047700;28;20045;-38
2021/06/19 06:56:48;;;;;;;35.33;29.30;;;19.90;99.90;;;;;;5047858;28;20128;-38
2021/06/19 06:59:14;;;;;;;35.78;31.17;;;19.80;99.90;;;;;;5039776;28;20064;-38
2021/06/19 07:01:46;;;;;;;37.05;32.17;;;19.80;99.90;;;;;;5044918;28;20086;-38
2021/06/19 07:04:14;;;;;;;42.85;37.30;;;20.00;99.90;;;;;;5055494;28;20037;-38
2021/06/19 07:06:44;;;;;;;37.60;33.58;;;20.50;99.90;;;;;;5048645;28;20045;-36
2021/06/19 07:09:10;;;;;;;38.17;31.33;;;20.80;99.90;;;;;;5047188;28;20468;-36
2021/06/19 07:11:37;;;;;;;31.85;28.55;;;21.20;99.90;;;;;;5047248;28;20041;-38
2021/06/19 07:14:05;;;;;;;34.88;31.27;;;21.50;99.90;;;;;;5046551;28;20049;-36
2021/06/19 07:16:37;;;;;;;34.30;30.88;;;21.60;99.90;;;;;;5037757;28;20047;-36
2021/06/19 07:19:06;;;;;;;33.00;29.40;;;21.30;99.90;;;;;;5048183;28;20049;-37
2021/06/19 07:21:38;;;;;;;32.72;29.20;;;20.90;99.90;;;;;;5049128;28;20051;-36
2021/06/19 07:24:10;;;;;;;31.52;28.25;;;20.80;99.90;;;;;;5040103;28;20045;-36
2021/06/19 07:26:39;;;;;;;30.80;27.52;;;21.00;99.90;;;;;;5033447;28;20797;-37
2021/06/19 07:29:08;;;;;;;35.25;30.40;;;21.20;99.90;;;;;;5045076;28;20045;-36
2021/06/19 07:31:37;;;;;;;34.45;30.52;;;21.30;99.90;;;;;;5041493;28;20048;-37
2021/06/19 07:34:06;;;;;;;31.85;27.20;;;21.40;99.90;;;;;;5028408;28;20049;-37
2021/06/19 07:36:32;;;;;;;32.55;29.00;;;21.60;99.90;;;;;;5028608;28;20114;-37
2021/06/19 07:39:02;;;;;;;30.80;25.92;;;21.80;99.90;;;;;;5032271;28;20072;-37
2021/06/19 07:41:30;;;;;;;30.92;27.63;;;21.50;99.90;;;;;;5046917;28;20048;-37
2021/06/19 07:44:02;;;;;;;26.27;22.90;;;21.40;99.90;;;;;;5048144;28;20053;-37
2021/06/19 07:46:33;;;;;;;28.00;24.17;;;21.30;99.90;;;;;;5046573;28;20378;-37
2021/06/19 07:49:03;;;;;;;29.00;23.83;;;21.10;99.90;;;;;;5047840;28;20048;-37
2021/06/19 07:51:31;;;;;;;24.17;20.27;;;21.00;99.90;;;;;;5032981;28;20056;-36
2021/06/19 07:54:00;;;;;;;26.42;20.88;;;21.00;99.90;;;;;;5045163;28;20041;-36
2021/06/19 07:56:27;;;;;;;24.65;20.17;;;20.90;99.90;;;;;;5028400;28;20053;-37
2021/06/19 07:58:56;;;;;;;24.65;21.02;;;21.50;99.90;;;;;;5043764;28;20136;-38
2021/06/19 08:01:28;;;;;;;24.33;21.70;;;21.40;99.90;;;;;;5032364;28;20049;-37
2021/06/19 08:03:55;;;;;;;28.42;25.45;;;21.50;99.90;;;;;;5048088;28;20052;-37
2021/06/19 08:06:24;;;;;;;29.35;26.23;;;21.70;99.90;;;;;;5047349;28;20545;-38
2021/06/19 08:08:54;;;;;;;23.02;20.60;;;22.00;99.90;;;;;;5044813;28;20400;-38
2021/06/19 08:11:23;;;;;;;23.67;19.67;;;22.40;99.90;;;;;;5050375;28;20519;-38
2021/06/19 08:13:53;;;;;;;19.25;16.88;;;22.50;99.90;;;;;;5033362;28;20054;-39
2021/06/19 08:16:25;;;;;;;19.80;17.67;;;22.80;99.90;;;;;;5044539;28;20059;-39
2021/06/19 08:18:53;;;;;;;;;;;23.20;99.90;;;;;;5043654;28;20057;-38
2021/06/19 08:21:22;;;;;;;21.60;18.55;;;23.20;99.90;;;;;;5039904;28;19920;-38
2021/06/19 08:23:48;;;;;;;21.55;16.15;;;23.10;99.90;;;;;;5044866;28;20071;-38
2021/06/19 08:26:17;;;;;;;22.15;17.63;;;23.60;99.90;;;;;;5020861;28;20390;-38
2021/06/19 08:28:51;;;;;;;22.20;18.15;;;23.70;99.90;;;;;;5044455;28;20052;-38
2021/06/19 08:31:23;;;;;;;20.67;17.38;;;23.50;99.90;;;;;;5039832;28;20108;-38
2021/06/19 08:33:53;;;;;;;75.97;68.43;;;23.40;99.90;;;;;;5036728;28;20135;-39
2021/06/19 08:36:20;;;;;;;29.00;23.43;;;23.30;99.90;;;;;;5043781;28;20437;-39
2021/06/19 08:38:49;;;;;;;21.60;18.75;;;23.80;99.90;;;;;;5046043;28;20055;-39
2021/06/19 08:41:20;;;;;;;22.20;19.90;;;23.70;99.90;;;;;;5046036;28;20044;-39
2021/06/19 08:43:51;;;;;;;21.90;19.55;;;23.40;99.90;;;;;;5048596;28;20040;-39
2021/06/19 08:46:21;;;;;;;24.77;22.17;;;23.80;99.90;;;;;;5037298;28;20076;-39
2021/06/19 08:48:52;;;;;;;20.52;18.30;;;23.50;99.90;;;;;;5038056;28;20488;-39
2021/06/19 08:51:23;;;;;;;16.63;14.93;;;23.50;99.90;;;;;;5055472;28;20159;-39
2021/06/19 08:53:51;;;;;;;18.45;16.48;;;23.80;99.90;;;;;;5062745;28;20265;-40
2021/06/19 08:56:23;;;;;;;17.05;15.18;;;24.10;99.90;;;;;;5027995;28;20073;-39
2021/06/19 08:58:54;;;;;;;17.23;15.38;;;24.20;99.90;;;;;;5044525;28;20139;-39
2021/06/19 09:01:20;;;;;;;16.98;15.10;;;24.20;99.90;;;;;;5042990;28;20037;-40
2021/06/19 09:03:50;;;;;;;19.10;17.15;;;24.10;99.90;;;;;;5037118;28;20076;-40
2021/06/19 09:06:27;;;;;;;22.02;19.90;;;23.70;99.90;;;;;;5053727;28;20055;-40
2021/06/19 09:09:00;;;;;;;21.95;19.73;;;23.90;99.90;;;;;;5042661;28;20052;-41
2021/06/19 09:11:46;;;;;;;21.83;19.08;;;24.20;99.70;;;;;;5043431;28;20041;-40
2021/06/19 09:14:15;;;;;;;20.00;17.98;;;24.10;99.90;;;;;;5045657;28;20041;-40
2021/06/19 09:16:43;;;;;;;21.30;18.63;;;23.70;99.90;;;;;;5044143;28;20045;-40
2021/06/19 09:19:35;;;;;;;19.50;17.60;;;23.60;99.90;;;;;;5034625;28;20535;-40
2021/06/19 09:22:27;;;;;;;22.30;20.15;;;23.50;99.90;;;;;;5053378;28;20051;-40
2021/06/19 09:24:58;;;;;;;20.23;18.15;;;23.30;99.90;;;;;;5041363;28;20045;-40
2021/06/19 09:27:35;;;;;;;21.13;18.63;;;23.30;99.90;;;;;;5039848;28;20033;-42
2021/06/19 09:30:16;;;;;;;22.45;20.15;;;23.20;99.90;;;;;;5046983;28;20041;-40
2021/06/19 09:32:54;;;;;;;18.40;16.27;;;23.10;99.90;;;;;;5045991;28;20041;-40
2021/06/19 09:35:29;;;;;;;18.02;16.08;;;23.60;99.90;;;;;;5028989;28;20567;-43
2021/06/19 09:38:24;;;;;;;17.40;15.10;;;23.60;99.90;;;;;;5046096;28;20045;-40
2021/06/19 09:40:50;;;;;;;16.67;14.98;;;23.40;99.10;;;;;;5050307;28;20068;-41
2021/06/19 09:43:16;;;;;;;18.50;16.63;;;23.40;99.90;;;;;;5052220;28;20079;-41
2021/06/19 09:46:04;;;;;;;31.58;28.48;;;23.30;99.90;;;;;;5048004;28;20110;-41
2021/06/19 09:48:40;;;;;;;40.95;36.95;;;23.30;99.90;;;;;;5041335;28;20038;-42
2021/06/19 09:51:12;;;;;;;18.25;16.10;;;23.50;99.90;;;;;;5035261;28;20132;-42
2021/06/19 09:53:40;;;;;;;24.08;21.13;;;23.70;99.90;;;;;;5033439;28;20080;-40
2021/06/19 09:56:09;;;;;;;19.52;17.48;;;23.60;99.90;;;;;;5043393;28;20493;-41
2021/06/19 09:58:43;;;;;;;20.55;18.55;;;23.60;99.90;;;;;;5038165;28;20060;-41
2021/06/19 10:01:42;;;;;;;15.48;13.55;;;23.60;99.90;;;;;;5054402;28;20045;-40
2021/06/19 10:04:12;;;;;;;17.08;15.25;;;24.00;99.90;;;;;;5050859;28;20033;-42
2021/06/19 10:06:40;;;;;;;19.08;17.20;;;23.90;99.90;;;;;;5046424;28;20075;-39
2021/06/19 10:09:14;;;;;;;18.67;16.90;;;23.90;99.90;;;;;;5045083;28;20044;-40
2021/06/19 10:11:46;;;;;;;16.50;14.75;;;23.90;99.90;;;;;;5049402;28;20048;-50
2021/06/19 10:14:17;;;;;;;16.30;14.57;;;23.50;99.90;;;;;;5048739;28;20051;-39
2021/06/19 10:16:52;;;;;;;32.70;29.35;;;23.30;99.90;;;;;;5048916;28;20372;-42
2021/06/19 10:19:26;;;;;;;21.92;19.17;;;23.80;99.90;;;;;;5048572;28;20053;-42
2021/06/19 10:21:54;;;;;;;29.98;26.90;;;24.10;98.50;;;;;;5034694;28;20638;-42
2021/06/19 10:24:22;;;;;;;18.27;16.30;;;24.50;99.50;;;;;;5041166;28;21684;-40
2021/06/19 10:26:52;;;;;;;17.27;15.57;;;24.70;97.30;;;;;;5049224;28;20140;-41
2021/06/19 10:29:24;;;;;;;16.35;14.77;;;25.20;98.60;;;;;;5053816;28;20500;-41
2021/06/19 10:31:51;;;;;;;16.40;14.80;;;25.30;96.80;;;;;;5047633;28;20049;-42
2021/06/19 10:34:32;;;;;;;16.85;15.25;;;25.50;95.00;;;;;;5045520;28;20049;-43
2021/06/19 10:37:03;;;;;;;15.88;13.57;;;25.80;96.20;;;;;;5035199;28;20049;-43
2021/06/19 10:39:39;;;;;;;14.00;12.70;;;25.60;92.20;;;;;;5044194;28;20109;-43
2021/06/19 10:42:23;;;;;;;35.38;32.22;;;25.60;95.00;;;;;;5045012;28;20056;-42
2021/06/19 10:45:30;;;;;;;13.45;12.23;;;25.60;95.30;;;;;;5039533;28;20264;-42
2021/06/19 10:47:58;;;;;;;16.50;14.95;;;25.60;95.40;;;;;;5041248;28;20130;-42
2021/06/19 10:50:27;;;;;;;12.27;10.55;;;25.40;92.80;;;;;;5047975;28;20507;-42
2021/06/19 10:53:07;;;;;;;14.25;12.80;;;26.00;95.60;;;;;;5042089;28;20135;-41
2021/06/19 10:55:55;;;;;;;26.70;24.30;;;26.60;93.00;;;;;;5042377;28;20056;-43
2021/06/19 10:58:34;;;;;;;10.48;9.45;;;26.70;91.60;;;;;;5043671;28;20118;-43
2021/06/19 11:01:02;;;;;;;12.40;11.20;;;26.60;91.40;;;;;;5047223;28;20052;-44
2021/06/19 11:03:42;;;;;;;10.05;9.07;;;26.50;91.90;;;;;;5059947;28;20037;-43
2021/06/19 11:06:23;;;;;;;;;;;26.10;90.00;;;;;;5054045;28;20045;-40
2021/06/19 11:09:16;;;;;;;8.68;7.88;;;25.50;87.00;;;;;;5042126;28;20324;-42
2021/06/19 11:11:51;;;;;;;9.85;8.55;;;25.60;91.30;;;;;;5048072;28;20807;-41
2021/06/19 11:14:44;;;;;;;8.75;7.95;;;25.90;90.80;;;;;;5046844;28;20072;-42
2021/06/19 11:17:33;;;;;;;11.57;10.48;;;25.90;90.10;;;;;;5048662;28;20075;-42
2021/06/19 11:20:05;;;;;;;9.07;8.13;;;26.20;90.20;;;;;;5049485;28;20827;-46
2021/06/19 11:22:38;;;;;;;10.30;9.20;;;26.10;92.10;;;;;;5032671;28;20107;-42
2021/06/19 11:25:10;;;;;;;10.57;9.57;;;26.40;91.60;;;;;;5038217;28;20094;-41
2021/06/19 11:27:59;;;;;;;9.05;8.18;;;26.30;89.10;;;;;;5034024;28;20046;-43
2021/06/19 11:30:38;;;;;;;13.85;12.55;;;26.40;86.30;;;;;;5031580;28;20045;-43
2021/06/19 11:33:20;;;;;;;18.70;16.92;;;25.90;83.80;;;;;;5039417;28;20473;-44
2021/06/19 11:35:47;;;;;;;;;;;25.80;89.70;;;;;;5047532;28;20040;-43
2021/06/19 11:38:15;;;;;;;15.05;13.80;;;25.90;89.60;;;;;;5045402;28;20277;-43
2021/06/19 11:40:47;;;;;;;13.90;12.50;;;25.60;87.40;;;;;;5046491;28;20477;-42
2021/06/19 11:43:14;;;;;;;14.15;11.18;;;25.60;91.80;;;;;;5041505;28;20037;-42
2021/06/19 11:45:41;;;;;;;11.93;10.88;;;25.40;91.70;;;;;;5041651;28;20042;-43
2021/06/19 11:48:15;;;;;;;11.52;10.50;;;25.90;90.00;;;;;;5038982;28;20053;-43
2021/06/19 11:50:44;;;;;;;13.50;12.30;;;26.20;91.50;;;;;;5044350;28;20049;-44
2021/06/19 11:53:26;;;;;;;11.73;10.82;;;26.50;90.80;;;;;;5043679;28;20110;-43
2021/06/19 11:56:09;;;;;;;12.60;11.57;;;26.10;86.20;;;;;;5046787;28;20077;-41
2021/06/19 11:58:45;;;;;;;16.35;14.82;;;26.50;90.10;;;;;;5043785;28;20044;-44
2021/06/19 12:01:13;;;;;;;14.55;13.32;;;26.70;88.20;;;;;;5044474;28;20117;-43
2021/06/19 12:03:42;;;;;;;14.55;13.45;;;26.40;90.70;;;;;;5045833;28;20107;-44
2021/06/19 12:06:11;;;;;;;15.23;13.98;;;26.40;89.60;;;;;;5048194;28;20045;-42
2021/06/19 12:08:38;;;;;;;16.02;14.60;;;26.10;90.90;;;;;;5043476;28;20065;-42
2021/06/19 12:11:04;;;;;;;15.77;14.40;;;26.50;91.30;;;;;;5045261;28;20049;-41
2021/06/19 12:13:42;;;;;;;23.52;21.42;;;26.50;91.80;;;;;;5047220;28;20041;-44
2021/06/19 12:16:10;;;;;;;64.25;58.63;;;26.80;86.10;;;;;;5026463;28;20049;-43
2021/06/19 12:18:39;;;;;;;19.00;17.40;;;26.50;90.60;;;;;;5034446;28;20580;-43
2021/06/19 12:21:09;;;;;;;19.90;18.27;;;26.80;90.60;;;;;;5043549;28;20053;-45
2021/06/19 12:23:35;;;;;;;21.63;19.92;;;26.30;90.40;;;;;;5045825;28;20565;-42
2021/06/19 12:26:05;;;;;;;17.88;16.45;;;26.30;91.80;;;;;;5044996;28;20065;-41
2021/06/19 12:28:33;;;;;;;16.85;15.35;;;26.40;92.50;;;;;;5044698;28;20045;-43
2021/06/19 12:31:00;;;;;;;17.75;16.33;;;26.90;92.50;;;;;;5043937;28;20070;-42
2021/06/19 12:33:30;;;;;;;22.35;20.35;;;27.20;92.00;;;;;;5046478;28;20108;-44
2021/06/19 12:35:59;;;;;;;16.95;15.57;;;27.40;89.50;;;;;;5033288;28;20136;-41
2021/06/19 12:38:28;;;;;;;18.33;16.83;;;27.30;90.60;;;;;;5030006;28;20072;-42
2021/06/19 12:40:58;;;;;;;17.67;16.23;;;27.50;89.50;;;;;;5042099;28;20496;-44
2021/06/19 12:43:26;;;;;;;15.57;14.35;;;26.80;89.60;;;;;;5045802;28;20226;-44
2021/06/19 12:45:53;;;;;;;18.38;16.88;;;26.60;88.70;;;;;;5042988;28;20041;-42